Time;durP1;ratioP1;P1;durP2;ratioP2;P2;SDS_P1;SDS_P2;PMS_P1;PMS_P2;Temp;Humidity;BMP_temperature;BMP_pressure;BME280_temperature;BME280_humidity;BME280_pressure;Samples;Min_cycle;Max_cycle;Signal;HPM_P1;HPM_P2
2021/09/03 00:02:10;;;;;;;;;;;13.10;99.90;;;;;;1914581;75;20199;-70
2021/09/03 00:04:37;;;;;;;;;;;13.20;99.90;;;;;;1914663;73;20165;-70
2021/09/03 00:07:04;;;;;;;;;;;13.20;99.90;;;;;;1895957;73;20181;-71
2021/09/03 00:09:30;;;;;;;;;;;13.10;99.90;;;;;;1910127;74;20169;-71
2021/09/03 00:11:57;;;;;;;;;;;13.10;99.90;;;;;;1913943;73;20162;-71
2021/09/03 00:14:24;;;;;;;;;;;13.10;99.90;;;;;;1914278;73;20149;-70
2021/09/03 00:16:51;;;;;;;;;;;13.10;99.90;;;;;;1914502;75;20215;-70
2021/09/03 00:19:18;;;;;;;;;;;13.10;99.90;;;;;;1914209;73;20164;-70
2021/09/03 00:21:45;;;;;;;;;;;13.10;99.90;;;;;;1914677;75;20169;-70
2021/09/03 00:24:12;;;;;;;;;;;13.00;99.90;;;;;;1914007;73;20118;-70
2021/09/03 00:26:39;;;;;;;;;;;12.90;99.90;;;;;;1915304;74;20470;-71
2021/09/03 00:29:05;;;;;;;;;;;12.90;99.90;;;;;;1913444;73;20199;-71
2021/09/03 00:31:32;;;;;;;;;;;12.90;99.90;;;;;;1893128;76;20106;-70
2021/09/03 00:33:59;;;;;;;;;;;12.90;99.90;;;;;;1913873;73;20221;-70
2021/09/03 00:36:26;;;;;;;;;;;12.80;99.90;;;;;;1914420;73;20150;-72
2021/09/03 00:38:53;;;;;;;;;;;12.90;99.90;;;;;;1914538;74;20173;-70
2021/09/03 00:41:19;;;;;;;;;;;12.80;99.90;;;;;;1896937;73;20185;-71
2021/09/03 00:43:46;;;;;;;;;;;12.80;99.90;;;;;;1907697;74;20163;-71
2021/09/03 00:46:13;;;;;;;;;;;12.80;99.90;;;;;;1921702;73;20157;-71
2021/09/03 00:48:40;;;;;;;;;;;12.80;99.90;;;;;;1914585;74;20121;-71
2021/09/03 00:51:07;;;;;;;;;;;12.70;99.90;;;;;;1909273;73;20218;-70
2021/09/03 00:53:35;;;;;;;;;;;12.80;99.90;;;;;;1890613;76;20228;-69
2021/09/03 00:56:03;;;;;;;;;;;12.80;99.90;;;;;;1892109;73;20923;-69
2021/09/03 00:58:30;;;;;;;;;;;12.70;99.90;;;;;;1893014;76;20470;-69
2021/09/03 01:00:56;;;;;;;;;;;12.70;99.90;;;;;;1906758;73;20212;-69
2021/09/03 01:03:23;;;;;;;;;;;12.70;99.90;;;;;;1917973;74;20172;-69
2021/09/03 01:05:51;;;;;;;;;;;12.70;99.90;;;;;;1911732;73;20248;-70
2021/09/03 01:08:17;;;;;;;;;;;12.70;99.90;;;;;;1914686;74;20189;-69
2021/09/03 01:10:44;;;;;;;;;;;12.50;99.90;;;;;;1904487;73;20180;-70
2021/09/03 01:13:11;;;;;;;;;;;12.60;99.90;;;;;;1892944;75;20117;-69
2021/09/03 01:15:38;;;;;;;;;;;12.60;99.90;;;;;;1901661;73;20487;-69
2021/09/03 01:18:06;;;;;;;;;;;12.60;99.90;;;;;;1915236;74;20126;-69
2021/09/03 01:20:33;;;;;;;;;;;12.60;99.90;;;;;;1914005;73;20162;-69
2021/09/03 01:23:00;;;;;;;;;;;12.60;99.90;;;;;;1914638;75;20157;-70
2021/09/03 01:25:26;;;;;;;;;;;12.60;99.90;;;;;;1913893;73;20184;-70
2021/09/03 01:27:53;;;;;;;;;;;12.60;99.90;;;;;;1914500;74;20153;-70
2021/09/03 01:30:20;;;;;;;;;;;12.50;99.90;;;;;;1912409;73;20220;-70
2021/09/03 01:32:48;;;;;;;;;;;12.50;99.90;;;;;;1914619;75;20170;-70
2021/09/03 01:35:15;;;;;;;;;;;12.50;99.90;;;;;;1914486;73;20134;-70
2021/09/03 01:37:43;;;;;;;;;;;12.50;99.90;;;;;;1901846;73;20178;-70
2021/09/03 01:40:10;;;;;;;;;;;12.50;99.90;;;;;;1892384;71;20116;-70
2021/09/03 01:42:37;;;;;;;;;;;12.40;99.90;;;;;;1862069;77;20181;-71
2021/09/03 01:45:04;;;;;;;;;;;12.40;99.90;;;;;;1888470;74;20116;-71
2021/09/03 01:47:31;;;;;;;;;;;12.40;99.90;;;;;;1893994;74;20171;-71
2021/09/03 01:49:58;;;;;;;;;;;12.40;99.90;;;;;;1868409;75;20403;-70
2021/09/03 01:52:25;;;;;;;;;;;12.40;99.90;;;;;;1862331;77;20203;-70
2021/09/03 01:54:52;;;;;;;;;;;12.30;99.90;;;;;;1862159;75;20388;-70
2021/09/03 01:57:19;;;;;;;;;;;12.30;99.90;;;;;;1862394;76;20156;-70
2021/09/03 01:59:46;;;;;;;;;;;12.20;99.90;;;;;;1861979;75;20156;-70
2021/09/03 02:02:12;;;;;;;;;;;12.20;99.90;;;;;;1862465;77;20177;-71
2021/09/03 02:04:39;;;;;;;;;;;12.20;99.90;;;;;;1862418;77;20162;-70
2021/09/03 02:07:06;;;;;;;;;;;12.20;99.90;;;;;;1862289;75;20157;-70
2021/09/03 02:09:33;;;;;;;;;;;12.20;99.90;;;;;;1862538;76;20158;-70
2021/09/03 02:12:00;;;;;;;;;;;12.20;99.90;;;;;;1862297;75;20181;-71
2021/09/03 02:14:27;;;;;;;;;;;12.20;99.90;;;;;;1862434;77;20181;-70
2021/09/03 02:16:53;;;;;;;;;;;12.10;99.90;;;;;;1861766;75;20235;-71
2021/09/03 02:19:20;;;;;;;;;;;12.20;99.90;;;;;;1862722;76;20154;-70
2021/09/03 02:21:47;;;;;;;;;;;12.10;99.90;;;;;;1861741;75;20158;-71
2021/09/03 02:24:14;;;;;;;;;;;12.10;99.90;;;;;;1861647;75;20162;-70
2021/09/03 02:26:41;;;;;;;;;;;12.10;99.90;;;;;;1861615;75;20114;-70
2021/09/03 02:29:07;;;;;;;;;;;12.10;99.90;;;;;;1861906;76;20161;-70
2021/09/03 02:31:34;;;;;;;;;;;12.10;99.90;;;;;;1861644;75;20221;-70
2021/09/03 02:34:01;;;;;;;;;;;12.10;99.90;;;;;;1862256;77;20134;-71
2021/09/03 02:36:28;;;;;;;;;;;12.10;99.90;;;;;;1861630;75;20196;-71
2021/09/03 02:38:54;;;;;;;;;;;12.10;99.90;;;;;;1861993;76;20173;-70
2021/09/03 02:41:21;;;;;;;;;;;12.10;99.90;;;;;;1861356;75;20118;-69
2021/09/03 02:43:48;;;;;;;;;;;12.20;99.90;;;;;;1862111;77;20134;-70
2021/09/03 02:46:15;;;;;;;;;;;12.20;99.90;;;;;;1861287;75;20126;-70
2021/09/03 02:48:42;;;;;;;;;;;12.20;99.90;;;;;;1862359;76;20197;-70
2021/09/03 02:51:08;;;;;;;;;;;12.10;99.90;;;;;;1861374;75;20212;-69
2021/09/03 02:53:35;;;;;;;;;;;12.10;99.90;;;;;;1861877;77;20450;-70
2021/09/03 02:56:02;;;;;;;;;;;12.10;99.90;;;;;;1861881;75;20173;-69
2021/09/03 02:58:29;;;;;;;;;;;12.00;99.90;;;;;;1861959;76;20442;-69
2021/09/03 03:00:56;;;;;;;;;;;12.10;99.90;;;;;;1860654;75;20156;-69
2021/09/03 03:03:22;;;;;;;;;;;12.10;99.90;;;;;;1837039;77;20183;-69
2021/09/03 03:05:49;;;;;;;;;;;12.00;99.90;;;;;;1854097;75;20122;-71
2021/09/03 03:08:16;;;;;;;;;;;12.10;99.90;;;;;;1862015;76;20158;-69
2021/09/03 03:10:43;;;;;;;;;;;12.00;99.90;;;;;;1861592;75;20166;-69
2021/09/03 03:13:21;;;;;;;;;;;12.00;99.90;;;;;;1862169;77;20173;-69
2021/09/03 03:15:51;;;;;;;;;;;12.00;99.90;;;;;;1861734;75;20173;-70
2021/09/03 03:18:18;;;;;;;;;;;11.90;99.90;;;;;;1862336;76;20211;-70
2021/09/03 03:20:45;;;;;;;;;;;11.90;99.90;;;;;;1862434;75;20153;-71
2021/09/03 03:23:12;;;;;;;;;;;11.90;99.90;;;;;;1861756;75;20199;-71
2021/09/03 03:25:39;;;;;;;;;;;11.90;99.90;;;;;;1862490;77;20169;-70
2021/09/03 03:28:06;;;;;;;;;;;11.90;99.90;;;;;;1862127;75;20126;-69
2021/09/03 03:30:33;;;;;;;;;;;11.80;99.90;;;;;;1862183;75;20462;-69
2021/09/03 03:33:00;;;;;;;;;;;11.80;99.90;;;;;;1862581;77;20149;-70
2021/09/03 03:35:27;;;;;;;;;;;11.70;99.90;;;;;;1861957;75;20201;-69
2021/09/03 03:37:54;;;;;;;;;;;11.70;99.90;;;;;;1862712;77;20106;-71
2021/09/03 03:40:21;;;;;;;;;;;11.70;99.90;;;;;;1861722;75;20173;-70
2021/09/03 03:42:48;;;;;;;;;;;11.70;99.90;;;;;;1862672;77;20213;-71
2021/09/03 03:45:14;;;;;;;;;;;11.70;99.90;;;;;;1863134;76;20121;-71
2021/09/03 03:47:41;;;;;;;;;;;11.70;99.90;;;;;;1862889;75;20193;-70
2021/09/03 03:50:08;;;;;;;;;;;11.60;99.90;;;;;;1863683;76;20187;-73
2021/09/03 03:52:35;;;;;;;;;;;11.70;99.90;;;;;;1863457;75;20168;-72
2021/09/03 03:55:02;;;;;;;;;;;11.70;99.90;;;;;;1863813;77;20156;-73
2021/09/03 03:57:29;;;;;;;;;;;11.60;99.90;;;;;;1863123;75;20102;-72
2021/09/03 03:59:56;;;;;;;;;;;11.70;99.90;;;;;;1861260;75;20177;-71
2021/09/03 04:02:22;;;;;;;;;;;11.60;99.90;;;;;;1861794;77;20178;-70
2021/09/03 04:04:49;;;;;;;;;;;11.50;99.90;;;;;;1861446;75;20165;-71
2021/09/03 04:07:16;;;;;;;;;;;11.50;99.90;;;;;;1861865;76;20141;-71
2021/09/03 04:09:43;;;;;;;;;;;11.60;99.90;;;;;;1860839;75;20117;-71
2021/09/03 04:12:10;;;;;;;;;;;11.70;99.90;;;;;;1862192;77;20215;-71
2021/09/03 04:14:37;;;;;;;;;;;11.60;99.90;;;;;;1861520;75;20165;-70
2021/09/03 04:17:04;;;;;;;;;;;11.60;99.90;;;;;;1860213;77;20189;-71
2021/09/03 04:19:31;;;;;;;;;;;11.50;99.90;;;;;;1861710;75;20185;-72
2021/09/03 04:21:57;;;;;;;;;;;11.50;99.90;;;;;;1861929;77;20185;-70
2021/09/03 04:24:24;;;;;;;;;;;11.50;99.90;;;;;;1860407;75;20174;-72
2021/09/03 04:26:51;;;;;;;;;;;11.50;99.90;;;;;;1861874;77;20170;-70
2021/09/03 04:29:18;;;;;;;;;;;11.40;99.90;;;;;;1861423;75;20236;-70
2021/09/03 04:31:44;;;;;;;;;;;11.40;99.90;;;;;;1862008;77;20192;-70
2021/09/03 04:34:11;;;;;;;;;;;11.40;99.90;;;;;;1861517;75;20160;-69
2021/09/03 04:36:38;;;;;;;;;;;11.50;99.90;;;;;;1861591;77;20184;-69
2021/09/03 04:39:05;;;;;;;;;;;11.40;99.90;;;;;;1853255;75;20197;-70
2021/09/03 04:41:32;;;;;;;;;;;11.60;99.90;;;;;;1862167;77;20110;-70
2021/09/03 04:43:58;;;;;;;;;;;11.40;99.90;;;;;;1861750;75;20450;-70
2021/09/03 04:46:25;;;;;;;;;;;11.40;99.90;;;;;;1861111;75;20122;-70
2021/09/03 04:48:52;;;;;;;;;;;11.40;99.90;;;;;;1863980;75;20125;-70
2021/09/03 04:51:19;;;;;;;;;;;11.40;99.90;;;;;;1861593;75;20174;-69
2021/09/03 04:53:46;;;;;;;;;;;11.30;99.90;;;;;;1862255;76;20383;-70
2021/09/03 04:56:12;;;;;;;;;;;11.40;99.90;;;;;;1861620;75;20153;-70
2021/09/03 04:58:39;;;;;;;;;;;11.40;99.90;;;;;;1862233;76;20137;-71
2021/09/03 05:01:06;;;;;;;;;;;11.40;99.90;;;;;;1861578;75;20126;-72
2021/09/03 05:03:33;;;;;;;;;;;11.30;99.90;;;;;;1856065;77;20212;-69
2021/09/03 05:06:00;;;;;;;;;;;11.30;99.90;;;;;;1862394;75;20200;-68
2021/09/03 05:08:26;;;;;;;;;;;11.30;99.90;;;;;;1862573;76;20176;-69
2021/09/03 05:10:53;;;;;;;;;;;11.40;99.90;;;;;;1862331;75;20211;-68
2021/09/03 05:13:20;;;;;;;;;;;11.50;99.90;;;;;;1862287;77;20130;-70
2021/09/03 05:15:47;;;;;;;;;;;11.50;99.90;;;;;;1861001;75;20173;-69
2021/09/03 05:18:14;;;;;;;;;;;11.50;99.90;;;;;;1862341;76;20184;-71
2021/09/03 05:20:40;;;;;;;;;;;11.60;99.90;;;;;;1861758;75;20149;-70
2021/09/03 05:23:07;;;;;;;;;;;11.50;99.90;;;;;;1861197;75;20192;-70
2021/09/03 05:25:34;;;;;;;;;;;11.50;99.90;;;;;;1860963;75;20160;-70
2021/09/03 05:28:01;;;;;;;;;;;11.50;99.90;;;;;;1861720;75;20544;-70
2021/09/03 05:30:28;;;;;;;;;;;11.60;99.90;;;;;;1861586;75;20192;-71
2021/09/03 05:32:55;;;;;;;;;;;11.70;99.90;;;;;;1855197;75;20158;-70
2021/09/03 05:35:24;;;;;;;;;;;11.80;99.90;;;;;;1853965;75;20177;-70
2021/09/03 05:37:51;;;;;;;;;;;11.80;99.90;;;;;;1846466;76;20219;-71
2021/09/03 05:40:17;;;;;;;;;;;11.80;99.90;;;;;;1860718;76;20173;-71
2021/09/03 05:42:44;;;;;;;;;;;12.00;99.90;;;;;;1860236;75;20482;-71
2021/09/03 05:45:11;;;;;;;;;;;12.00;99.90;;;;;;1860776;76;20170;-70
2021/09/03 05:47:42;;;;;;;;;;;12.10;99.90;;;;;;1861176;75;20212;-71
2021/09/03 05:50:09;;;;;;;;;;;12.10;99.90;;;;;;1861306;75;20174;-71
2021/09/03 05:52:36;;;;;;;;;;;12.20;99.90;;;;;;1872288;76;20175;-71
2021/09/03 05:55:03;;;;;;;;;;;12.30;99.90;;;;;;1873072;75;20152;-71
2021/09/03 05:57:30;;;;;;;;;;;12.40;99.90;;;;;;1861360;76;20470;-70
2021/09/03 05:59:57;;;;;;;;;;;12.50;99.90;;;;;;1866499;75;20176;-70
2021/09/03 06:02:24;;;;;;;;;;;12.60;99.90;;;;;;1859252;76;20131;-70
2021/09/03 06:04:50;;;;;;;;;;;12.70;99.90;;;;;;1859813;75;20208;-70
2021/09/03 06:07:17;;;;;;;;;;;12.80;99.90;;;;;;1862249;77;20150;-70
2021/09/03 06:09:44;;;;;;;;;;;12.90;99.90;;;;;;1861183;75;20133;-70
2021/09/03 06:12:11;;;;;;;;;;;13.00;99.90;;;;;;1861536;75;20201;-71
2021/09/03 06:14:38;;;;;;;;;;;13.20;99.90;;;;;;1860363;75;20259;-72
2021/09/03 06:17:04;;;;;;;;;;;13.30;99.90;;;;;;1852115;76;20179;-72
2021/09/03 06:19:31;;;;;;;;;;;13.30;99.90;;;;;;1864575;75;20228;-71
2021/09/03 06:22:00;;;;;;;;;;;13.40;99.90;;;;;;1864291;75;20193;-70
2021/09/03 06:24:30;;;;;;;;;;;13.40;99.90;;;;;;1861295;75;20229;-70
2021/09/03 06:27:01;;;;;;;;;;;13.50;99.90;;;;;;1864469;75;20211;-71
2021/09/03 06:29:45;;;;;;;;;;;13.60;99.90;;;;;;1857112;75;20170;-71
2021/09/03 06:32:13;;;;;;;;;;;13.60;99.90;;;;;;1863466;75;20174;-71
2021/09/03 06:34:41;;;;;;;;;;;13.80;99.90;;;;;;1869484;76;20151;-72
2021/09/03 06:37:08;;;;;;;;;;;13.80;99.90;;;;;;1861749;75;20267;-71
2021/09/03 06:39:36;;;;;;;;;;;13.90;99.90;;;;;;1845732;76;20220;-72
2021/09/03 06:42:04;;;;;;;;;;;13.90;99.90;;;;;;1861824;75;20126;-71
2021/09/03 06:44:31;;;;;;;;;;;13.90;99.90;;;;;;1856508;76;20154;-72
2021/09/03 06:46:58;;;;;;;;;;;14.00;99.90;;;;;;1854395;75;20308;-71
2021/09/03 06:49:25;;;;;;;;;;;14.10;99.90;;;;;;1857947;75;20181;-70
2021/09/03 06:51:52;;;;;;;;;;;14.20;99.90;;;;;;1856731;75;20205;-72
2021/09/03 06:54:19;;;;;;;;;;;14.20;99.90;;;;;;1865234;75;20225;-71
2021/09/03 06:56:46;;;;;;;;;;;14.20;99.90;;;;;;1864103;75;20185;-72
2021/09/03 06:59:13;;;;;;;;;;;14.30;99.90;;;;;;1861714;76;20138;-72
2021/09/03 07:01:40;;;;;;;;;;;14.30;99.90;;;;;;1860086;76;20134;-71
2021/09/03 07:04:07;;;;;;;;;;;14.40;99.90;;;;;;1850941;77;20118;-70
2021/09/03 07:06:34;;;;;;;;;;;14.40;99.90;;;;;;1868189;76;20159;-71
2021/09/03 07:09:04;;;;;;;;;;;14.50;99.90;;;;;;1871618;76;20154;-71
2021/09/03 07:11:29;;;;;;;;;;;14.60;99.90;;;;;;1863100;77;20172;-71
2021/09/03 07:13:56;;;;;;;;;;;14.70;99.90;;;;;;1877714;76;20120;-70
2021/09/03 07:16:23;;;;;;;;;;;14.70;99.90;;;;;;1867612;75;20202;-71
2021/09/03 07:18:49;;;;;;;;;;;14.80;99.90;;;;;;1892678;75;20146;-70
2021/09/03 07:21:16;;;;;;;;;;;14.80;99.90;;;;;;1902141;75;20452;-69
2021/09/03 07:23:43;;;;;;;;;;;14.90;99.90;;;;;;1869322;75;20153;-70
2021/09/03 07:26:10;;;;;;;;;;;15.10;99.90;;;;;;1881135;75;20466;-71
2021/09/03 07:28:37;;;;;;;;;;;15.10;99.90;;;;;;1859872;76;20181;-71
2021/09/03 07:31:03;;;;;;;;;;;15.10;99.90;;;;;;1855772;77;20148;-71
2021/09/03 07:33:30;;;;;;;;;;;15.20;99.90;;;;;;1860136;76;20185;-71
2021/09/03 07:35:57;;;;;;;;;;;15.20;99.90;;;;;;1861101;76;20118;-71
2021/09/03 07:38:43;;;;;;;;;;;15.30;99.90;;;;;;1862010;75;20553;-71
2021/09/03 07:41:10;;;;;;;;;;;15.30;99.90;;;;;;1918575;73;20184;-76
2021/09/03 07:43:37;;;;;;;;;;;15.40;99.90;;;;;;1926369;74;20184;-75
2021/09/03 07:46:04;;;;;;;;;;;15.40;99.90;;;;;;1897318;74;20129;-73
2021/09/03 07:48:31;;;;;;;;;;;15.40;99.90;;;;;;1898392;74;20452;-71
2021/09/03 07:50:58;;;;;;;;;;;15.50;99.90;;;;;;1866066;76;20423;-71
2021/09/03 07:53:24;;;;;;;;;;;15.50;99.90;;;;;;1869925;77;20308;-72
2021/09/03 07:55:51;;;;;;;;;;;15.60;99.90;;;;;;1838460;77;20477;-72
2021/09/03 07:58:18;;;;;;;;;;;15.60;99.90;;;;;;1862968;77;20138;-72
2021/09/03 08:00:45;;;;;;;;;;;15.70;99.90;;;;;;1862914;75;20209;-72
2021/09/03 08:03:12;;;;;;;;;;;15.80;99.90;;;;;;1860730;75;21261;-71
2021/09/03 08:05:38;;;;;;;;;;;15.80;99.90;;;;;;1873102;75;20119;-71
2021/09/03 08:08:06;;;;;;;;;;;15.90;99.90;;;;;;1874940;75;20516;-71
2021/09/03 08:10:33;;;;;;;;;;;15.90;99.90;;;;;;1872778;75;20862;-72
2021/09/03 08:13:01;;;;;;;;;;;16.00;99.90;;;;;;1878260;75;20107;-72
2021/09/03 08:15:28;;;;;;;;;;;16.00;99.90;;;;;;1880387;75;20247;-72
2021/09/03 08:17:55;;;;;;;;;;;16.00;99.90;;;;;;1878241;75;20393;-72
2021/09/03 08:20:22;;;;;;;;;;;16.00;99.90;;;;;;1877086;75;20182;-72
2021/09/03 08:22:50;;;;;;;;;;;16.10;99.90;;;;;;1870957;75;20183;-71
2021/09/03 08:25:18;;;;;;;;;;;16.10;99.90;;;;;;1877541;75;20597;-71
2021/09/03 08:27:45;;;;;;;;;;;16.20;99.90;;;;;;1867282;75;20521;-71
2021/09/03 08:30:11;;;;;;;;;;;16.10;99.90;;;;;;1869653;75;20242;-72
2021/09/03 08:32:38;;;;;;;;;;;16.20;99.90;;;;;;1873956;75;20234;-71
2021/09/03 08:35:05;;;;;;;;;;;16.20;99.90;;;;;;1848507;77;20221;-71
2021/09/03 08:37:32;;;;;;;;;;;16.20;99.90;;;;;;1884519;75;20221;-71
2021/09/03 08:39:59;;;;;;;;;;;16.20;99.90;;;;;;1839527;75;20406;-71
2021/09/03 08:42:28;;;;;;;;;;;16.20;99.90;;;;;;1833079;77;20471;-71
2021/09/03 08:45:00;;;;;;;;;;;16.20;99.90;;;;;;1870981;75;20129;-71
2021/09/03 08:47:23;;;;;;;;;;;16.30;99.90;;;;;;1871428;75;20125;-72
2021/09/03 08:49:53;;;;;;;;;;;16.30;99.90;;;;;;1875374;75;20185;-71
2021/09/03 08:52:20;;;;;;;;;;;16.30;99.90;;;;;;1874824;75;20178;-71
2021/09/03 08:54:47;;;;;;;;;;;16.30;99.90;;;;;;1877871;75;20184;-71
2021/09/03 08:57:14;;;;;;;;;;;16.30;99.90;;;;;;1834106;77;20202;-71
2021/09/03 08:59:41;;;;;;;;;;;16.30;99.90;;;;;;1840218;76;20461;-72
2021/09/03 09:02:15;;;;;;;;;;;16.30;99.90;;;;;;1848421;76;20802;-72
2021/09/03 09:04:43;;;;;;;;;;;16.30;99.90;;;;;;1853402;76;20219;-71
2021/09/03 09:07:10;;;;;;;;;;;16.40;99.90;;;;;;1853924;76;20111;-72
2021/09/03 09:09:39;;;;;;;;;;;16.30;99.90;;;;;;1853249;76;20179;-72
2021/09/03 09:12:07;;;;;;;;;;;16.30;99.90;;;;;;1851447;76;20152;-72
2021/09/03 09:14:52;;;;;;;;;;;16.30;99.90;;;;;;1851118;76;20145;-71
2021/09/03 09:17:29;;;;;;;;;;;16.30;99.90;;;;;;1852071;76;20475;-72
2021/09/03 09:19:56;;;;;;;;;;;16.40;99.90;;;;;;1850613;75;20174;-72
2021/09/03 09:22:23;;;;;;;;;;;16.30;99.90;;;;;;1854129;76;20170;-72
2021/09/03 09:24:50;;;;;;;;;;;16.30;99.90;;;;;;1856849;76;20118;-72
2021/09/03 09:27:24;;;;;;;;;;;16.30;99.90;;;;;;1857000;76;20539;-72
2021/09/03 09:29:51;;;;;;;;;;;16.30;99.90;;;;;;1855486;75;20188;-72
2021/09/03 09:32:18;;;;;;;;;;;16.30;99.90;;;;;;1848633;76;20131;-72
2021/09/03 09:34:45;;;;;;;;;;;16.30;99.90;;;;;;1851721;76;20220;-72
2021/09/03 09:37:13;;;;;;;;;;;16.30;99.90;;;;;;1855316;76;20524;-71
2021/09/03 09:39:42;;;;;;;;;;;16.40;99.90;;;;;;1855092;76;20197;-72
2021/09/03 09:42:10;;;;;;;;;;;16.40;99.90;;;;;;1856914;76;20205;-72
2021/09/03 09:44:37;;;;;;;;;;;16.40;99.90;;;;;;1844728;76;20221;-72
2021/09/03 09:47:05;;;;;;;;;;;16.40;99.90;;;;;;1856234;76;20238;-72
2021/09/03 09:49:33;;;;;;;;;;;16.40;99.90;;;;;;1854213;76;20208;-72
2021/09/03 09:51:59;;;;;;;;;;;16.40;99.90;;;;;;1854289;76;20497;-71
2021/09/03 09:54:27;;;;;;;;;;;16.40;99.90;;;;;;1851958;76;20178;-71
2021/09/03 09:56:55;;;;;;;;;;;16.50;99.90;;;;;;1840626;76;20180;-73
2021/09/03 09:59:22;;;;;;;;;;;16.40;99.90;;;;;;1857198;76;20155;-73
2021/09/03 10:01:50;;;;;;;;;;;16.50;99.90;;;;;;1851528;76;20228;-73
2021/09/03 10:04:19;;;;;;;;;;;16.50;99.90;;;;;;1857848;76;20358;-73
2021/09/03 10:06:47;;;;;;;;;;;16.60;99.90;;;;;;1863924;76;20260;-74
2021/09/03 10:09:17;;;;;;;;;;;16.60;99.90;;;;;;1839898;77;20224;-74
2021/09/03 10:11:46;;;;;;;;;;;16.70;99.90;;;;;;1849846;77;20186;-72
2021/09/03 10:14:15;;;;;;;;;;;16.70;99.90;;;;;;1849898;78;20198;-73
2021/09/03 10:16:43;;;;;;;;;;;16.70;99.90;;;;;;1818428;77;20176;-73
2021/09/03 10:19:10;;;;;;;;;;;16.70;99.90;;;;;;1849386;76;20240;-74
2021/09/03 10:21:39;;;;;;;;;;;16.70;99.90;;;;;;1851758;76;20169;-73
2021/09/03 10:24:07;;;;;;;;;;;16.70;99.90;;;;;;1817315;79;20121;-76
2021/09/03 10:26:39;;;;;;;;;;;16.80;99.90;;;;;;1856975;75;20214;-75
2021/09/03 10:29:13;;;;;;;;;;;16.80;99.90;;;;;;1866298;76;20242;-74
2021/09/03 10:31:58;;;;;;;;;;;16.90;99.90;;;;;;1856597;76;20521;-75
2021/09/03 10:34:47;;;;;;;;;;;17.00;99.90;;;;;;1864676;76;20156;-76
2021/09/03 10:37:18;;;;;;;;;;;17.10;99.90;;;;;;1858183;76;20291;-75
2021/09/03 10:39:52;;;;;;;;;;;17.40;99.90;;;;;;1841774;76;20170;-75
2021/09/03 10:42:36;;;;;;;;;;;17.40;99.90;;;;;;1843451;78;20212;-75
2021/09/03 10:45:09;;;;;;;;;;;17.40;99.90;;;;;;1846913;76;20147;-74
2021/09/03 10:47:34;;;;;;;;;;;17.40;99.90;;;;;;1866477;76;20189;-74
2021/09/03 10:50:11;;;;;;;;;;;17.60;99.90;;;;;;1882093;75;20166;-75
2021/09/03 10:52:38;;;;;;;;;;;17.80;99.90;;;;;;1885972;76;20160;-75
2021/09/03 10:55:09;;;;;;;;;;;18.00;99.90;;;;;;1885814;76;20186;-74
2021/09/03 10:57:53;;;;;;;;;;;18.10;99.90;;;;;;1875158;76;20492;-75
2021/09/03 11:00:20;;;;;;;;;;;18.00;99.90;;;;;;1871014;75;20103;-74
2021/09/03 11:02:47;;;;;;;;;;;18.00;99.90;;;;;;1854451;77;20188;-75
2021/09/03 11:05:14;;;;;;;;;;;18.00;99.90;;;;;;1852696;76;20130;-75
2021/09/03 11:07:42;;;;;;;;;;;17.90;99.90;;;;;;1885922;76;20183;-74
2021/09/03 11:10:19;;;;;;;;;;;18.00;99.90;;;;;;1853411;76;20202;-74
2021/09/03 11:12:50;;;;;;;;;;;18.10;99.90;;;;;;1845472;76;20509;-74
2021/09/03 11:15:17;;;;;;;;;;;18.30;99.90;;;;;;1843000;77;20386;-75
2021/09/03 11:17:44;;;;;;;;;;;18.40;99.90;;;;;;1843115;78;20171;-74
2021/09/03 11:20:11;;;;;;;;;;;18.50;99.90;;;;;;1842566;77;20131;-75
2021/09/03 11:22:38;;;;;;;;;;;18.70;99.90;;;;;;1844818;77;20185;-75
2021/09/03 11:25:07;;;;;;;;;;;18.90;99.90;;;;;;1847111;77;20170;-74
2021/09/03 11:27:35;;;;;;;;;;;18.90;99.90;;;;;;1846176;78;20483;-75
2021/09/03 11:30:07;;;;;;;;;;;18.70;99.90;;;;;;1864068;75;20172;-81
2021/09/03 11:32:36;;;;;;;;;;;18.90;99.90;;;;;;1866957;76;20211;-73
2021/09/03 11:35:13;;;;;;;;;;;19.10;99.90;;;;;;1849819;76;20197;-72
2021/09/03 11:37:40;;;;;;;;;;;19.20;99.90;;;;;;1839008;76;20125;-76
2021/09/03 11:40:15;;;;;;;;;;;19.20;99.90;;;;;;1854980;76;20108;-75
2021/09/03 11:42:43;;;;;;;;;;;19.30;99.90;;;;;;1857501;76;20154;-74
2021/09/03 11:45:16;;;;;;;;;;;19.40;99.90;;;;;;1862265;75;20192;-76
2021/09/03 11:47:41;;;;;;;;;;;19.70;99.90;;;;;;1860325;76;20120;-72
2021/09/03 11:50:12;;;;;;;;;;;19.90;99.90;;;;;;1859746;75;20217;-72
2021/09/03 11:52:40;;;;;;;;;;;19.90;99.90;;;;;;1859751;76;20491;-73
2021/09/03 11:55:11;;;;;;;;;;;20.10;99.90;;;;;;1863803;75;20175;-73
2021/09/03 11:57:51;;;;;;;;;;;20.10;99.90;;;;;;1857485;76;20171;-73
2021/09/03 12:00:18;;;;;;;;;;;20.10;99.90;;;;;;1855086;76;20124;-73
2021/09/03 12:02:45;;;;;;;;;;;20.40;99.90;;;;;;1860087;76;20211;-73
2021/09/03 12:05:12;;;;;;;;;;;20.50;99.90;;;;;;1859933;76;20877;-72
2021/09/03 12:07:39;;;;;;;;;;;20.70;99.90;;;;;;1863713;75;20417;-73
2021/09/03 12:10:06;;;;;;;;;;;20.80;99.90;;;;;;1854953;75;20357;-73
2021/09/03 12:12:34;;;;;;;;;;;20.80;99.90;;;;;;1860856;76;20186;-73
2021/09/03 12:15:01;;;;;;;;;;;21.10;99.90;;;;;;1860591;76;20205;-74
2021/09/03 12:17:38;;;;;;;;;;;21.20;99.90;;;;;;1860948;75;20123;-74
2021/09/03 12:20:13;;;;;;;;;;;21.30;99.90;;;;;;1860531;75;20231;-73
2021/09/03 12:22:41;;;;;;;;;;;21.50;99.90;;;;;;1857608;76;20197;-73
2021/09/03 12:25:08;;;;;;;;;;;21.70;99.90;;;;;;1855888;76;20170;-74
2021/09/03 12:27:35;;;;;;;;;;;21.90;99.90;;;;;;1858820;76;20126;-72
2021/09/03 12:30:11;;;;;;;;;;;22.20;99.90;;;;;;1858936;76;20186;-73
2021/09/03 12:32:38;;;;;;;;;;;22.20;99.90;;;;;;1857654;76;20437;-73
2021/09/03 12:35:09;;;;;;;;;;;22.20;99.90;;;;;;1859817;76;20185;-73
2021/09/03 12:37:36;;;;;;;;;;;22.30;99.90;;;;;;1854820;76;20197;-74
2021/09/03 12:40:07;;;;;;;;;;;22.30;99.90;;;;;;1859705;76;20167;-73
2021/09/03 12:42:35;;;;;;;;;;;22.50;99.90;;;;;;1857142;76;20208;-73
2021/09/03 12:45:02;;;;;;;;;;;22.50;99.90;;;;;;1855489;76;20430;-73
2021/09/03 12:47:29;;;;;;;;;;;22.50;99.90;;;;;;1860781;76;20111;-73
2021/09/03 12:49:56;;;;;;;;;;;22.60;99.90;;;;;;1863199;76;20448;-72
2021/09/03 12:52:28;;;;;;;;;;;22.80;99.90;;;;;;1858218;75;20131;-73
2021/09/03 12:54:52;;;;;;;;;;;22.90;99.90;;;;;;1861270;76;20170;-73
2021/09/03 12:57:19;;;;;;;;;;;22.90;99.90;;;;;;1861711;76;20129;-73
2021/09/03 12:59:45;;;;;;;;;;;23.00;99.90;;;;;;1859622;75;20222;-70
2021/09/03 13:02:12;;;;;;;;;;;23.20;99.90;;;;;;1864394;76;20178;-73
2021/09/03 13:04:39;;;;;;;;;;;23.20;99.90;;;;;;1862699;76;20130;-72
2021/09/03 13:07:06;;;;;;;;;;;23.30;99.90;;;;;;1866245;76;20157;-72
2021/09/03 13:09:32;;;;;;;;;;;23.10;99.90;;;;;;1859204;76;20158;-73
2021/09/03 13:12:01;;;;;;;;;;;23.10;99.90;;;;;;1862835;76;20120;-73
2021/09/03 13:14:28;;;;;;;;;;;23.20;99.90;;;;;;1862678;76;20173;-73
2021/09/03 13:16:58;;;;;;;;;;;23.40;99.90;;;;;;1856659;76;20127;-73
2021/09/03 13:19:24;;;;;;;;;;;23.50;99.90;;;;;;1863931;76;20581;-72
2021/09/03 13:21:51;;;;;;;;;;;23.60;99.90;;;;;;1858744;76;20416;-73
2021/09/03 13:24:18;;;;;;;;;;;23.70;99.90;;;;;;1860722;76;20232;-72
2021/09/03 13:26:45;;;;;;;;;;;23.80;99.90;;;;;;1859965;76;20209;-73
2021/09/03 13:29:12;;;;;;;;;;;23.90;99.90;;;;;;1872918;75;20132;-72
2021/09/03 13:31:39;;;;;;;;;;;23.80;99.90;;;;;;1862679;76;20205;-73
2021/09/03 13:34:06;;;;;;;;;;;23.90;99.90;;;;;;1856342;76;20177;-73
2021/09/03 13:36:34;;;;;;;;;;;24.10;99.90;;;;;;1865745;76;20179;-73
2021/09/03 13:39:02;;;;;;;;;;;24.00;99.90;;;;;;1859414;76;20527;-74
2021/09/03 13:41:29;;;;;;;;;;;24.10;99.90;;;;;;1892762;72;20270;-70
2021/09/03 13:43:57;;;;;;;;;;;24.10;99.90;;;;;;1882382;75;20235;-71
2021/09/03 13:46:24;;;;;;;;;;;24.40;99.90;;;;;;1881063;74;20186;-70
2021/09/03 13:48:51;;;;;;;;;;;24.40;99.90;;;;;;1881114;75;20182;-71
2021/09/03 13:51:20;;;;;;;;;;;24.30;99.90;;;;;;1907504;73;20196;-71
2021/09/03 13:53:46;;;;;;;;;;;24.30;99.90;;;;;;1905781;73;20459;-71
2021/09/03 13:56:14;;;;;;;;;;;24.50;99.90;;;;;;1913473;73;20200;-71
2021/09/03 13:58:41;;;;;;;;;;;24.70;99.90;;;;;;1907498;73;20124;-70
2021/09/03 14:01:08;;;;;;;;;;;24.80;99.90;;;;;;1918018;73;20447;-71
2021/09/03 14:03:34;;;;;;;;;;;24.80;99.90;;;;;;1907665;74;20156;-72
2021/09/03 14:06:01;;;;;;;;;;;25.00;99.90;;;;;;1914912;73;20197;-72
2021/09/03 14:08:28;;;;;;;;;;;25.10;99.90;;;;;;1915360;73;20174;-72
2021/09/03 14:10:59;;;;;;;;;;;24.90;99.90;;;;;;1918823;73;20622;-71
2021/09/03 14:13:26;;;;;;;;;;;24.90;99.90;;;;;;1913774;73;20159;-72
2021/09/03 14:15:53;;;;;;;;;;;24.90;99.90;;;;;;1911705;73;20208;-73
2021/09/03 14:18:20;;;;;;;;;;;24.90;99.90;;;;;;1904432;74;20183;-73
2021/09/03 14:20:47;;;;;;;;;;;25.10;99.90;;;;;;1911878;73;20208;-73